sensor_id;sensor_type;location;lat;lon;timestamp;temperature;humidity
18506;DHT22;9382;53.242;10.438;2022-12-18T00:00:43;-4.50;99.90
18506;DHT22;9382;53.242;10.438;2022-12-18T00:03:12;-4.50;99.90
18506;DHT22;9382;53.242;10.438;2022-12-18T00:05:47;-4.60;99.90
18506;DHT22;9382;53.242;10.438;2022-12-18T00:08:14;-4.60;99.90
18506;DHT22;9382;53.242;10.438;2022-12-18T00:10:42;-4.60;99.90
18506;DHT22;9382;53.242;10.438;2022-12-18T00:13:09;-4.60;99.90
18506;DHT22;9382;53.242;10.438;2022-12-18T00:15:38;-4.60;99.90
18506;DHT22;9382;53.242;10.438;2022-12-18T00:18:05;-4.60;99.90
18506;DHT22;9382;53.242;10.438;2022-12-18T00:20:36;-4.60;99.90
18506;DHT22;9382;53.242;10.438;2022-12-18T00:23:05;-4.70;99.90
18506;DHT22;9382;53.242;10.438;2022-12-18T00:25:33;-4.80;99.90
18506;DHT22;9382;53.242;10.438;2022-12-18T00:28:01;-4.80;99.90
18506;DHT22;9382;53.242;10.438;2022-12-18T00:30:27;-4.80;99.90
18506;DHT22;9382;53.242;10.438;2022-12-18T00:32:54;-4.70;99.90
18506;DHT22;9382;53.242;10.438;2022-12-18T00:35:21;-4.70;99.90
18506;DHT22;9382;53.242;10.438;2022-12-18T00:37:48;-4.70;99.90
18506;DHT22;9382;53.242;10.438;2022-12-18T00:40:17;-4.70;99.90
18506;DHT22;9382;53.242;10.438;2022-12-18T00:42:44;-4.70;99.90
18506;DHT22;9382;53.242;10.438;2022-12-18T00:45:21;-4.70;99.90
18506;DHT22;9382;53.242;10.438;2022-12-18T00:47:48;-4.70;99.90
18506;DHT22;9382;53.242;10.438;2022-12-18T00:50:15;-4.70;99.90
18506;DHT22;9382;53.242;10.438;2022-12-18T00:52:42;-4.80;99.90
18506;DHT22;9382;53.242;10.438;2022-12-18T00:55:09;-4.90;99.90
18506;DHT22;9382;53.242;10.438;2022-12-18T00:57:37;-4.90;99.90
18506;DHT22;9382;53.242;10.438;2022-12-18T01:00:08;-5.00;99.90
18506;DHT22;9382;53.242;10.438;2022-12-18T01:02:35;-5.00;99.90
18506;DHT22;9382;53.242;10.438;2022-12-18T01:05:02;-5.00;99.90
18506;DHT22;9382;53.242;10.438;2022-12-18T01:07:29;-4.90;99.90
18506;DHT22;9382;53.242;10.438;2022-12-18T01:09:55;-4.80;99.90
18506;DHT22;9382;53.242;10.438;2022-12-18T01:12:22;-4.80;99.90
18506;DHT22;9382;53.242;10.438;2022-12-18T01:14:51;-4.80;99.90
18506;DHT22;9382;53.242;10.438;2022-12-18T01:17:17;-4.80;99.90
18506;DHT22;9382;53.242;10.438;2022-12-18T01:19:44;-4.80;99.90
18506;DHT22;9382;53.242;10.438;2022-12-18T01:22:11;-4.70;99.90
18506;DHT22;9382;53.242;10.438;2022-12-18T01:24:38;-4.70;99.90
18506;DHT22;9382;53.242;10.438;2022-12-18T01:27:05;-4.70;99.90
18506;DHT22;9382;53.242;10.438;2022-12-18T01:29:32;-4.80;99.90
18506;DHT22;9382;53.242;10.438;2022-12-18T01:32:00;-4.70;99.90
18506;DHT22;9382;53.242;10.438;2022-12-18T01:34:27;-4.70;99.90
18506;DHT22;9382;53.242;10.438;2022-12-18T01:36:54;-4.70;99.90
18506;DHT22;9382;53.242;10.438;2022-12-18T01:39:20;-4.80;99.90
18506;DHT22;9382;53.242;10.438;2022-12-18T01:41:47;-4.80;99.90
18506;DHT22;9382;53.242;10.438;2022-12-18T01:45:01;-4.90;99.90
18506;DHT22;9382;53.242;10.438;2022-12-18T01:47:42;-4.90;99.90
18506;DHT22;9382;53.242;10.438;2022-12-18T01:50:13;-5.00;99.90
18506;DHT22;9382;53.242;10.438;2022-12-18T01:52:41;-5.00;99.90
18506;DHT22;9382;53.242;10.438;2022-12-18T01:55:09;-5.00;99.90
18506;DHT22;9382;53.242;10.438;2022-12-18T01:57:38;-5.00;99.90
18506;DHT22;9382;53.242;10.438;2022-12-18T02:00:08;-5.00;99.90
18506;DHT22;9382;53.242;10.438;2022-12-18T02:02:36;-5.00;99.90
18506;DHT22;9382;53.242;10.438;2022-12-18T02:05:06;-5.00;99.90
18506;DHT22;9382;53.242;10.438;2022-12-18T02:07:40;-5.10;99.90
18506;DHT22;9382;53.242;10.438;2022-12-18T02:10:17;-5.10;99.90
18506;DHT22;9382;53.242;10.438;2022-12-18T02:12:51;-5.20;99.90
18506;DHT22;9382;53.242;10.438;2022-12-18T02:15:24;-5.20;99.90
18506;DHT22;9382;53.242;10.438;2022-12-18T02:17:56;-5.30;99.90
18506;DHT22;9382;53.242;10.438;2022-12-18T02:20:30;-5.30;99.90
18506;DHT22;9382;53.242;10.438;2022-12-18T02:23:08;-5.30;99.90
18506;DHT22;9382;53.242;10.438;2022-12-18T02:26:07;-5.30;99.90
18506;DHT22;9382;53.242;10.438;2022-12-18T02:28:42;-5.30;99.90
18506;DHT22;9382;53.242;10.438;2022-12-18T02:31:14;-5.30;99.90
18506;DHT22;9382;53.242;10.438;2022-12-18T02:33:43;-5.30;99.90
18506;DHT22;9382;53.242;10.438;2022-12-18T02:36:13;-5.30;99.90
18506;DHT22;9382;53.242;10.438;2022-12-18T02:38:42;-5.40;99.90
18506;DHT22;9382;53.242;10.438;2022-12-18T02:41:13;-5.40;99.90
18506;DHT22;9382;53.242;10.438;2022-12-18T02:43:42;-5.40;99.90
18506;DHT22;9382;53.242;10.438;2022-12-18T02:46:26;-5.40;99.90
18506;DHT22;9382;53.242;10.438;2022-12-18T02:48:59;-5.40;99.90
18506;DHT22;9382;53.242;10.438;2022-12-18T02:51:30;-5.40;99.90
18506;DHT22;9382;53.242;10.438;2022-12-18T02:54:06;-5.30;99.90
18506;DHT22;9382;53.242;10.438;2022-12-18T02:56:39;-5.30;99.90
18506;DHT22;9382;53.242;10.438;2022-12-18T02:59:14;-5.40;99.90
18506;DHT22;9382;53.242;10.438;2022-12-18T03:01:47;-5.40;99.90
18506;DHT22;9382;53.242;10.438;2022-12-18T03:04:19;-5.50;99.90
18506;DHT22;9382;53.242;10.438;2022-12-18T03:06:49;-5.60;99.90
18506;DHT22;9382;53.242;10.438;2022-12-18T03:09:19;-5.60;99.90
18506;DHT22;9382;53.242;10.438;2022-12-18T03:11:55;-5.70;99.90
18506;DHT22;9382;53.242;10.438;2022-12-18T03:14:40;-5.70;99.90
18506;DHT22;9382;53.242;10.438;2022-12-18T03:17:14;-5.70;99.90
18506;DHT22;9382;53.242;10.438;2022-12-18T03:19:43;-5.80;99.90
18506;DHT22;9382;53.242;10.438;2022-12-18T03:22:11;-5.80;99.90
18506;DHT22;9382;53.242;10.438;2022-12-18T03:24:38;-5.90;99.90
18506;DHT22;9382;53.242;10.438;2022-12-18T03:27:09;-5.90;99.90
18506;DHT22;9382;53.242;10.438;2022-12-18T03:29:40;-5.90;99.90
18506;DHT22;9382;53.242;10.438;2022-12-18T03:32:11;-5.90;99.90
18506;DHT22;9382;53.242;10.438;2022-12-18T03:34:40;-6.00;99.90
18506;DHT22;9382;53.242;10.438;2022-12-18T03:37:09;-5.90;99.90
18506;DHT22;9382;53.242;10.438;2022-12-18T03:39:36;-6.00;99.90
18506;DHT22;9382;53.242;10.438;2022-12-18T03:42:08;-6.00;99.90
18506;DHT22;9382;53.242;10.438;2022-12-18T03:44:42;-5.90;99.90
18506;DHT22;9382;53.242;10.438;2022-12-18T03:47:14;-6.00;99.90
18506;DHT22;9382;53.242;10.438;2022-12-18T03:49:45;-5.90;99.90
18506;DHT22;9382;53.242;10.438;2022-12-18T03:52:17;-5.90;99.90
18506;DHT22;9382;53.242;10.438;2022-12-18T03:54:45;-5.90;99.90
18506;DHT22;9382;53.242;10.438;2022-12-18T03:57:17;-5.90;99.90
18506;DHT22;9382;53.242;10.438;2022-12-18T03:59:47;-5.90;99.90
18506;DHT22;9382;53.242;10.438;2022-12-18T04:02:16;-5.90;99.90
18506;DHT22;9382;53.242;10.438;2022-12-18T04:04:44;-5.90;99.90
18506;DHT22;9382;53.242;10.438;2022-12-18T04:07:13;-6.00;99.90
18506;DHT22;9382;53.242;10.438;2022-12-18T04:09:42;-6.10;99.90
18506;DHT22;9382;53.242;10.438;2022-12-18T04:12:10;-6.20;99.90
18506;DHT22;9382;53.242;10.438;2022-12-18T04:14:38;-6.50;99.90
18506;DHT22;9382;53.242;10.438;2022-12-18T04:17:05;-6.50;99.90
18506;DHT22;9382;53.242;10.438;2022-12-18T04:19:32;-6.50;99.90
18506;DHT22;9382;53.242;10.438;2022-12-18T04:21:59;-6.60;99.90
18506;DHT22;9382;53.242;10.438;2022-12-18T04:24:26;-6.70;99.90
18506;DHT22;9382;53.242;10.438;2022-12-18T04:26:53;-6.70;99.90
18506;DHT22;9382;53.242;10.438;2022-12-18T04:29:20;-6.70;99.90
18506;DHT22;9382;53.242;10.438;2022-12-18T04:31:48;-6.80;99.90
18506;DHT22;9382;53.242;10.438;2022-12-18T04:34:15;-6.70;99.90
18506;DHT22;9382;53.242;10.438;2022-12-18T04:36:42;-6.70;99.90
18506;DHT22;9382;53.242;10.438;2022-12-18T04:39:09;-6.60;99.90
18506;DHT22;9382;53.242;10.438;2022-12-18T04:41:36;-6.50;99.90
18506;DHT22;9382;53.242;10.438;2022-12-18T04:44:03;-6.50;99.90
18506;DHT22;9382;53.242;10.438;2022-12-18T04:46:30;-6.50;99.90
18506;DHT22;9382;53.242;10.438;2022-12-18T04:48:58;-6.50;99.90
18506;DHT22;9382;53.242;10.438;2022-12-18T04:51:25;-6.50;99.90
18506;DHT22;9382;53.242;10.438;2022-12-18T04:53:52;-6.50;99.90
18506;DHT22;9382;53.242;10.438;2022-12-18T04:56:20;-6.50;99.90
18506;DHT22;9382;53.242;10.438;2022-12-18T04:58:47;-6.50;99.90
18506;DHT22;9382;53.242;10.438;2022-12-18T05:01:16;-6.40;99.90
18506;DHT22;9382;53.242;10.438;2022-12-18T05:03:43;-6.40;99.90
18506;DHT22;9382;53.242;10.438;2022-12-18T05:06:12;-6.40;99.90
18506;DHT22;9382;53.242;10.438;2022-12-18T05:08:39;-6.40;99.90
18506;DHT22;9382;53.242;10.438;2022-12-18T05:11:07;-6.30;99.90
18506;DHT22;9382;53.242;10.438;2022-12-18T05:13:35;-6.40;99.90
18506;DHT22;9382;53.242;10.438;2022-12-18T05:16:04;-6.30;99.90
18506;DHT22;9382;53.242;10.438;2022-12-18T05:18:31;-6.30;99.90
18506;DHT22;9382;53.242;10.438;2022-12-18T05:20:58;-6.30;99.90
18506;DHT22;9382;53.242;10.438;2022-12-18T05:23:26;-6.30;99.90
18506;DHT22;9382;53.242;10.438;2022-12-18T05:25:54;-6.30;99.90
18506;DHT22;9382;53.242;10.438;2022-12-18T05:28:23;-6.30;99.90
18506;DHT22;9382;53.242;10.438;2022-12-18T05:30:51;-6.40;99.90
18506;DHT22;9382;53.242;10.438;2022-12-18T05:33:18;-6.50;99.90
18506;DHT22;9382;53.242;10.438;2022-12-18T05:35:50;-6.50;99.90
18506;DHT22;9382;53.242;10.438;2022-12-18T05:38:17;-6.60;99.90
18506;DHT22;9382;53.242;10.438;2022-12-18T05:40:45;-6.70;99.90
18506;DHT22;9382;53.242;10.438;2022-12-18T05:43:12;-6.80;99.90
18506;DHT22;9382;53.242;10.438;2022-12-18T05:45:39;-6.90;99.90
18506;DHT22;9382;53.242;10.438;2022-12-18T05:48:07;-6.90;99.90
18506;DHT22;9382;53.242;10.438;2022-12-18T05:50:34;-6.90;99.90
18506;DHT22;9382;53.242;10.438;2022-12-18T05:53:01;-7.00;99.90
18506;DHT22;9382;53.242;10.438;2022-12-18T05:55:28;-7.00;99.90
18506;DHT22;9382;53.242;10.438;2022-12-18T05:57:56;-7.00;99.90
18506;DHT22;9382;53.242;10.438;2022-12-18T06:00:23;-6.90;99.90
18506;DHT22;9382;53.242;10.438;2022-12-18T06:02:50;-6.90;99.90
18506;DHT22;9382;53.242;10.438;2022-12-18T06:05:16;-7.00;99.90
18506;DHT22;9382;53.242;10.438;2022-12-18T06:07:43;-6.90;99.90
18506;DHT22;9382;53.242;10.438;2022-12-18T06:10:10;-6.90;99.90
18506;DHT22;9382;53.242;10.438;2022-12-18T06:12:37;-6.90;99.90
18506;DHT22;9382;53.242;10.438;2022-12-18T06:15:07;-6.90;99.90
18506;DHT22;9382;53.242;10.438;2022-12-18T06:17:34;-6.80;99.90
18506;DHT22;9382;53.242;10.438;2022-12-18T06:20:01;-6.80;99.90
18506;DHT22;9382;53.242;10.438;2022-12-18T06:22:30;-6.80;99.90
18506;DHT22;9382;53.242;10.438;2022-12-18T06:24:57;-6.80;99.90
18506;DHT22;9382;53.242;10.438;2022-12-18T06:27:25;-6.80;99.90
18506;DHT22;9382;53.242;10.438;2022-12-18T06:29:51;-6.80;99.90
18506;DHT22;9382;53.242;10.438;2022-12-18T06:32:20;-6.80;99.90
18506;DHT22;9382;53.242;10.438;2022-12-18T06:34:46;-6.80;99.90
18506;DHT22;9382;53.242;10.438;2022-12-18T06:37:13;-6.80;99.90
18506;DHT22;9382;53.242;10.438;2022-12-18T06:39:40;-6.80;99.90
18506;DHT22;9382;53.242;10.438;2022-12-18T06:42:07;-6.80;99.90
18506;DHT22;9382;53.242;10.438;2022-12-18T06:44:34;-6.80;99.90
18506;DHT22;9382;53.242;10.438;2022-12-18T06:47:01;-6.80;99.90
18506;DHT22;9382;53.242;10.438;2022-12-18T06:49:29;-6.80;99.90
18506;DHT22;9382;53.242;10.438;2022-12-18T06:51:56;-6.80;99.90
18506;DHT22;9382;53.242;10.438;2022-12-18T06:54:22;-6.80;99.90
18506;DHT22;9382;53.242;10.438;2022-12-18T06:56:49;-6.80;99.90
18506;DHT22;9382;53.242;10.438;2022-12-18T06:59:16;-6.80;99.90
18506;DHT22;9382;53.242;10.438;2022-12-18T07:01:43;-6.80;99.90
18506;DHT22;9382;53.242;10.438;2022-12-18T07:04:10;-6.80;99.90
18506;DHT22;9382;53.242;10.438;2022-12-18T07:06:38;-6.90;99.90
18506;DHT22;9382;53.242;10.438;2022-12-18T07:09:05;-6.90;99.90
18506;DHT22;9382;53.242;10.438;2022-12-18T07:11:32;-6.90;99.90
18506;DHT22;9382;53.242;10.438;2022-12-18T07:13:59;-6.90;99.90
18506;DHT22;9382;53.242;10.438;2022-12-18T07:16:26;-6.90;99.90
18506;DHT22;9382;53.242;10.438;2022-12-18T07:18:55;-6.90;99.90
18506;DHT22;9382;53.242;10.438;2022-12-18T07:21:23;-6.80;99.90
18506;DHT22;9382;53.242;10.438;2022-12-18T07:23:51;-6.80;99.90
18506;DHT22;9382;53.242;10.438;2022-12-18T07:26:20;-6.80;99.90
18506;DHT22;9382;53.242;10.438;2022-12-18T07:28:48;-6.80;99.90
18506;DHT22;9382;53.242;10.438;2022-12-18T07:31:17;-6.80;99.90
18506;DHT22;9382;53.242;10.438;2022-12-18T07:33:44;-6.80;99.90
18506;DHT22;9382;53.242;10.438;2022-12-18T07:36:11;-6.80;99.90
18506;DHT22;9382;53.242;10.438;2022-12-18T07:38:38;-6.80;99.90
18506;DHT22;9382;53.242;10.438;2022-12-18T07:41:08;-6.80;99.90
18506;DHT22;9382;53.242;10.438;2022-12-18T07:43:36;-6.80;99.90
18506;DHT22;9382;53.242;10.438;2022-12-18T07:46:03;-6.70;99.90
18506;DHT22;9382;53.242;10.438;2022-12-18T07:48:30;-6.70;99.90
18506;DHT22;9382;53.242;10.438;2022-12-18T07:50:58;-6.70;99.90
18506;DHT22;9382;53.242;10.438;2022-12-18T07:53:25;-6.70;99.90
18506;DHT22;9382;53.242;10.438;2022-12-18T07:55:55;-6.70;99.90
18506;DHT22;9382;53.242;10.438;2022-12-18T07:58:24;-6.70;99.90
18506;DHT22;9382;53.242;10.438;2022-12-18T08:00:51;-6.60;99.90
18506;DHT22;9382;53.242;10.438;2022-12-18T08:03:19;-6.60;99.90
18506;DHT22;9382;53.242;10.438;2022-12-18T08:05:46;-6.60;99.90
18506;DHT22;9382;53.242;10.438;2022-12-18T08:08:12;-6.50;99.90
18506;DHT22;9382;53.242;10.438;2022-12-18T08:10:39;-6.50;99.90
18506;DHT22;9382;53.242;10.438;2022-12-18T08:13:06;-6.50;99.90
18506;DHT22;9382;53.242;10.438;2022-12-18T08:15:34;-6.40;99.90
18506;DHT22;9382;53.242;10.438;2022-12-18T08:18:01;-6.40;99.90
18506;DHT22;9382;53.242;10.438;2022-12-18T08:20:28;-6.40;99.90
18506;DHT22;9382;53.242;10.438;2022-12-18T08:22:55;-6.30;99.90
18506;DHT22;9382;53.242;10.438;2022-12-18T08:25:23;-6.20;99.90
18506;DHT22;9382;53.242;10.438;2022-12-18T08:27:50;-6.20;99.90
18506;DHT22;9382;53.242;10.438;2022-12-18T08:30:17;-6.10;99.90
18506;DHT22;9382;53.242;10.438;2022-12-18T08:32:45;-6.00;99.90
18506;DHT22;9382;53.242;10.438;2022-12-18T08:35:12;-6.00;99.90
18506;DHT22;9382;53.242;10.438;2022-12-18T08:37:39;-5.90;99.90
18506;DHT22;9382;53.242;10.438;2022-12-18T08:40:07;-5.80;99.90
18506;DHT22;9382;53.242;10.438;2022-12-18T08:42:34;-5.80;99.90
18506;DHT22;9382;53.242;10.438;2022-12-18T08:45:19;-5.80;99.90
18506;DHT22;9382;53.242;10.438;2022-12-18T08:47:47;-5.80;99.90
18506;DHT22;9382;53.242;10.438;2022-12-18T08:50:14;-5.70;99.90
18506;DHT22;9382;53.242;10.438;2022-12-18T08:52:41;-5.70;99.90
18506;DHT22;9382;53.242;10.438;2022-12-18T08:55:08;-5.60;99.90
18506;DHT22;9382;53.242;10.438;2022-12-18T08:57:35;-5.60;99.90
18506;DHT22;9382;53.242;10.438;2022-12-18T09:00:03;-5.50;99.90
18506;DHT22;9382;53.242;10.438;2022-12-18T09:02:30;-5.50;99.90
18506;DHT22;9382;53.242;10.438;2022-12-18T09:04:58;-5.40;99.90
18506;DHT22;9382;53.242;10.438;2022-12-18T09:07:26;-5.40;99.90
18506;DHT22;9382;53.242;10.438;2022-12-18T09:09:53;-5.30;99.90
18506;DHT22;9382;53.242;10.438;2022-12-18T09:12:20;-5.20;99.90
18506;DHT22;9382;53.242;10.438;2022-12-18T09:14:47;-5.10;99.90
18506;DHT22;9382;53.242;10.438;2022-12-18T09:17:14;-4.90;99.90
18506;DHT22;9382;53.242;10.438;2022-12-18T09:19:40;-4.80;99.90
18506;DHT22;9382;53.242;10.438;2022-12-18T09:22:09;-4.60;99.90
18506;DHT22;9382;53.242;10.438;2022-12-18T09:24:36;-4.50;99.90
18506;DHT22;9382;53.242;10.438;2022-12-18T09:27:02;-4.30;99.90
18506;DHT22;9382;53.242;10.438;2022-12-18T09:29:29;-4.20;99.90
18506;DHT22;9382;53.242;10.438;2022-12-18T09:31:56;-4.00;99.90
18506;DHT22;9382;53.242;10.438;2022-12-18T09:34:23;-3.90;99.90
18506;DHT22;9382;53.242;10.438;2022-12-18T09:36:51;-3.70;99.90
18506;DHT22;9382;53.242;10.438;2022-12-18T09:39:19;-3.50;99.90
18506;DHT22;9382;53.242;10.438;2022-12-18T09:41:50;-3.40;99.90
18506;DHT22;9382;53.242;10.438;2022-12-18T09:44:25;-3.20;99.90
18506;DHT22;9382;53.242;10.438;2022-12-18T09:47:10;-3.10;99.90
18506;DHT22;9382;53.242;10.438;2022-12-18T09:49:41;-3.00;99.90
18506;DHT22;9382;53.242;10.438;2022-12-18T09:52:13;-2.90;99.90
18506;DHT22;9382;53.242;10.438;2022-12-18T09:54:44;-2.70;99.90
18506;DHT22;9382;53.242;10.438;2022-12-18T09:57:15;-2.70;99.90
18506;DHT22;9382;53.242;10.438;2022-12-18T09:59:45;-2.70;99.90
18506;DHT22;9382;53.242;10.438;2022-12-18T10:02:18;-2.60;99.90
18506;DHT22;9382;53.242;10.438;2022-12-18T10:04:58;-2.50;99.90
18506;DHT22;9382;53.242;10.438;2022-12-18T10:07:33;-2.30;99.90
18506;DHT22;9382;53.242;10.438;2022-12-18T10:10:12;-2.20;99.90
18506;DHT22;9382;53.242;10.438;2022-12-18T10:12:44;-2.10;99.90
18506;DHT22;9382;53.242;10.438;2022-12-18T10:15:16;-1.80;99.90
18506;DHT22;9382;53.242;10.438;2022-12-18T10:17:52;-1.60;99.90
18506;DHT22;9382;53.242;10.438;2022-12-18T10:20:30;-1.50;99.90
18506;DHT22;9382;53.242;10.438;2022-12-18T10:23:03;-1.50;99.90
18506;DHT22;9382;53.242;10.438;2022-12-18T10:25:50;-1.30;99.90
18506;DHT22;9382;53.242;10.438;2022-12-18T10:28:19;-1.20;99.90
18506;DHT22;9382;53.242;10.438;2022-12-18T10:30:46;-1.00;99.90
18506;DHT22;9382;53.242;10.438;2022-12-18T10:33:15;-0.80;99.90
18506;DHT22;9382;53.242;10.438;2022-12-18T10:35:43;-0.70;99.90
18506;DHT22;9382;53.242;10.438;2022-12-18T10:38:22;-0.70;99.90
18506;DHT22;9382;53.242;10.438;2022-12-18T10:40:53;-0.60;99.90
18506;DHT22;9382;53.242;10.438;2022-12-18T10:43:22;-0.40;99.90
18506;DHT22;9382;53.242;10.438;2022-12-18T10:46:02;-0.30;99.90
18506;DHT22;9382;53.242;10.438;2022-12-18T10:48:30;-0.10;99.90
18506;DHT22;9382;53.242;10.438;2022-12-18T10:50:57;0.00;99.90
18506;DHT22;9382;53.242;10.438;2022-12-18T10:53:26;0.00;99.90
18506;DHT22;9382;53.242;10.438;2022-12-18T10:55:57;0.20;99.90
18506;DHT22;9382;53.242;10.438;2022-12-18T10:58:26;0.50;99.90
18506;DHT22;9382;53.242;10.438;2022-12-18T11:01:04;0.60;99.90
18506;DHT22;9382;53.242;10.438;2022-12-18T11:03:33;0.50;99.90
18506;DHT22;9382;53.242;10.438;2022-12-18T11:06:04;0.40;99.90
18506;DHT22;9382;53.242;10.438;2022-12-18T11:08:31;0.60;99.90
18506;DHT22;9382;53.242;10.438;2022-12-18T11:10:59;0.50;99.90
18506;DHT22;9382;53.242;10.438;2022-12-18T11:13:28;0.60;99.90
18506;DHT22;9382;53.242;10.438;2022-12-18T11:15:56;0.70;99.90
18506;DHT22;9382;53.242;10.438;2022-12-18T11:18:27;0.70;99.90
18506;DHT22;9382;53.242;10.438;2022-12-18T11:20:55;0.70;99.90
18506;DHT22;9382;53.242;10.438;2022-12-18T11:23:23;0.80;99.90
18506;DHT22;9382;53.242;10.438;2022-12-18T11:25:53;0.90;99.90
18506;DHT22;9382;53.242;10.438;2022-12-18T11:28:37;1.00;99.90
18506;DHT22;9382;53.242;10.438;2022-12-18T11:31:23;1.10;99.90
18506;DHT22;9382;53.242;10.438;2022-12-18T11:34:00;1.30;99.90
18506;DHT22;9382;53.242;10.438;2022-12-18T11:36:31;1.30;99.90
18506;DHT22;9382;53.242;10.438;2022-12-18T11:39:02;1.50;99.90
18506;DHT22;9382;53.242;10.438;2022-12-18T11:41:36;1.60;99.90
18506;DHT22;9382;53.242;10.438;2022-12-18T11:44:26;1.80;99.90
18506;DHT22;9382;53.242;10.438;2022-12-18T11:46:59;1.60;99.90
18506;DHT22;9382;53.242;10.438;2022-12-18T11:49:29;1.60;99.90
18506;DHT22;9382;53.242;10.438;2022-12-18T11:52:01;1.60;99.90
18506;DHT22;9382;53.242;10.438;2022-12-18T11:54:30;1.60;99.90
18506;DHT22;9382;53.242;10.438;2022-12-18T11:57:03;1.50;99.90
18506;DHT22;9382;53.242;10.438;2022-12-18T11:59:39;1.30;99.90
18506;DHT22;9382;53.242;10.438;2022-12-18T12:02:29;1.30;99.90
18506;DHT22;9382;53.242;10.438;2022-12-18T12:05:10;1.30;99.90
18506;DHT22;9382;53.242;10.438;2022-12-18T12:07:42;1.40;99.90
18506;DHT22;9382;53.242;10.438;2022-12-18T12:10:25;1.40;99.90
18506;DHT22;9382;53.242;10.438;2022-12-18T12:13:09;1.40;99.90
18506;DHT22;9382;53.242;10.438;2022-12-18T12:15:47;1.40;99.90
18506;DHT22;9382;53.242;10.438;2022-12-18T12:18:26;1.40;99.90
18506;DHT22;9382;53.242;10.438;2022-12-18T12:21:02;1.40;99.90
18506;DHT22;9382;53.242;10.438;2022-12-18T12:23:40;1.50;99.90
18506;DHT22;9382;53.242;10.438;2022-12-18T12:26:11;1.50;99.90
18506;DHT22;9382;53.242;10.438;2022-12-18T12:28:57;1.30;99.90
18506;DHT22;9382;53.242;10.438;2022-12-18T12:31:38;1.20;99.90
18506;DHT22;9382;53.242;10.438;2022-12-18T12:34:16;1.00;99.90
18506;DHT22;9382;53.242;10.438;2022-12-18T12:36:54;0.90;99.90
18506;DHT22;9382;53.242;10.438;2022-12-18T12:39:30;0.70;99.90
18506;DHT22;9382;53.242;10.438;2022-12-18T12:41:58;0.50;99.90
18506;DHT22;9382;53.242;10.438;2022-12-18T12:44:45;0.30;99.90
18506;DHT22;9382;53.242;10.438;2022-12-18T12:47:22;0.00;99.90
18506;DHT22;9382;53.242;10.438;2022-12-18T12:49:50;-0.10;99.90
18506;DHT22;9382;53.242;10.438;2022-12-18T12:52:22;-0.30;99.90
18506;DHT22;9382;53.242;10.438;2022-12-18T12:54:51;-0.40;99.90
18506;DHT22;9382;53.242;10.438;2022-12-18T12:57:21;-0.40;99.90
18506;DHT22;9382;53.242;10.438;2022-12-18T12:59:56;-0.40;99.90
18506;DHT22;9382;53.242;10.438;2022-12-18T13:02:30;-0.30;99.90
18506;DHT22;9382;53.242;10.438;2022-12-18T13:05:03;-0.30;99.90
18506;DHT22;9382;53.242;10.438;2022-12-18T13:07:36;-0.40;99.90
18506;DHT22;9382;53.242;10.438;2022-12-18T13:10:24;-0.40;99.90
18506;DHT22;9382;53.242;10.438;2022-12-18T13:12:53;-0.50;99.90
18506;DHT22;9382;53.242;10.438;2022-12-18T13:15:24;-0.60;99.90
18506;DHT22;9382;53.242;10.438;2022-12-18T13:18:14;-0.60;99.90
18506;DHT22;9382;53.242;10.438;2022-12-18T13:20:44;-0.70;99.90
18506;DHT22;9382;53.242;10.438;2022-12-18T13:23:35;-0.80;99.90
18506;DHT22;9382;53.242;10.438;2022-12-18T13:26:30;-0.90;99.90
18506;DHT22;9382;53.242;10.438;2022-12-18T13:28:58;-0.80;99.90
18506;DHT22;9382;53.242;10.438;2022-12-18T13:34:34;-0.70;99.90
18506;DHT22;9382;53.242;10.438;2022-12-18T13:37:41;-0.60;99.90
18506;DHT22;9382;53.242;10.438;2022-12-18T13:43:28;-0.60;99.90
18506;DHT22;9382;53.242;10.438;2022-12-18T13:46:01;-0.70;99.90
18506;DHT22;9382;53.242;10.438;2022-12-18T13:48:31;-0.80;99.90
18506;DHT22;9382;53.242;10.438;2022-12-18T13:51:03;-1.00;99.90
18506;DHT22;9382;53.242;10.438;2022-12-18T13:53:34;-1.10;99.90
18506;DHT22;9382;53.242;10.438;2022-12-18T13:56:03;-1.20;99.90
18506;DHT22;9382;53.242;10.438;2022-12-18T13:58:30;-1.40;99.90
18506;DHT22;9382;53.242;10.438;2022-12-18T14:00:58;-1.40;99.90
18506;DHT22;9382;53.242;10.438;2022-12-18T14:03:29;-1.50;99.90
18506;DHT22;9382;53.242;10.438;2022-12-18T14:06:01;-1.60;99.90
18506;DHT22;9382;53.242;10.438;2022-12-18T14:08:34;-1.70;99.90
18506;DHT22;9382;53.242;10.438;2022-12-18T14:11:03;-1.80;99.90
18506;DHT22;9382;53.242;10.438;2022-12-18T14:13:33;-1.90;99.90
18506;DHT22;9382;53.242;10.438;2022-12-18T14:16:04;-1.90;99.90
18506;DHT22;9382;53.242;10.438;2022-12-18T14:18:37;-2.10;99.90
18506;DHT22;9382;53.242;10.438;2022-12-18T14:21:06;-2.10;99.90
18506;DHT22;9382;53.242;10.438;2022-12-18T14:23:42;-2.20;99.90
18506;DHT22;9382;53.242;10.438;2022-12-18T14:26:21;-2.20;99.90
18506;DHT22;9382;53.242;10.438;2022-12-18T14:28:49;-2.30;99.90
18506;DHT22;9382;53.242;10.438;2022-12-18T14:31:19;-2.30;99.90
18506;DHT22;9382;53.242;10.438;2022-12-18T14:33:46;-2.30;99.90
18506;DHT22;9382;53.242;10.438;2022-12-18T14:36:17;-2.40;99.90
18506;DHT22;9382;53.242;10.438;2022-12-18T14:38:49;-2.40;99.90
18506;DHT22;9382;53.242;10.438;2022-12-18T14:41:17;-2.40;99.90
18506;DHT22;9382;53.242;10.438;2022-12-18T14:43:46;-2.50;99.90
18506;DHT22;9382;53.242;10.438;2022-12-18T14:46:28;-2.50;99.90
18506;DHT22;9382;53.242;10.438;2022-12-18T14:48:57;-2.50;99.90
18506;DHT22;9382;53.242;10.438;2022-12-18T14:51:28;-2.60;99.90
18506;DHT22;9382;53.242;10.438;2022-12-18T14:53:57;-2.60;99.90
18506;DHT22;9382;53.242;10.438;2022-12-18T14:56:27;-2.60;99.90
18506;DHT22;9382;53.242;10.438;2022-12-18T14:58:57;-2.70;99.90
18506;DHT22;9382;53.242;10.438;2022-12-18T15:01:27;-2.70;99.90
18506;DHT22;9382;53.242;10.438;2022-12-18T15:03:56;-2.80;99.90
18506;DHT22;9382;53.242;10.438;2022-12-18T15:06:30;-2.80;99.90
18506;DHT22;9382;53.242;10.438;2022-12-18T15:08:58;-2.70;99.90
18506;DHT22;9382;53.242;10.438;2022-12-18T15:11:27;-2.80;99.90
18506;DHT22;9382;53.242;10.438;2022-12-18T15:13:54;-2.70;99.90
18506;DHT22;9382;53.242;10.438;2022-12-18T15:16:21;-2.80;99.90
18506;DHT22;9382;53.242;10.438;2022-12-18T15:18:48;-2.80;99.90
18506;DHT22;9382;53.242;10.438;2022-12-18T15:21:18;-2.80;99.90
18506;DHT22;9382;53.242;10.438;2022-12-18T15:23:48;-2.80;99.90
18506;DHT22;9382;53.242;10.438;2022-12-18T15:26:18;-2.80;99.90
18506;DHT22;9382;53.242;10.438;2022-12-18T15:28:46;-2.90;99.90
18506;DHT22;9382;53.242;10.438;2022-12-18T15:31:33;-2.90;99.90
18506;DHT22;9382;53.242;10.438;2022-12-18T15:34:13;-2.90;99.90
18506;DHT22;9382;53.242;10.438;2022-12-18T15:36:40;-2.90;99.90
18506;DHT22;9382;53.242;10.438;2022-12-18T15:39:11;-3.00;99.90
18506;DHT22;9382;53.242;10.438;2022-12-18T15:41:38;-3.00;99.90
18506;DHT22;9382;53.242;10.438;2022-12-18T15:44:22;-3.00;99.90
18506;DHT22;9382;53.242;10.438;2022-12-18T15:46:48;-3.00;99.90
18506;DHT22;9382;53.242;10.438;2022-12-18T15:49:15;-3.00;99.90
18506;DHT22;9382;53.242;10.438;2022-12-18T15:51:42;-3.00;99.90
18506;DHT22;9382;53.242;10.438;2022-12-18T15:54:12;-3.00;99.90
18506;DHT22;9382;53.242;10.438;2022-12-18T15:56:41;-3.10;99.90
18506;DHT22;9382;53.242;10.438;2022-12-18T15:59:25;-3.00;99.90